Wilson Lista — 8PRW — position and weather

sailwx.info

Track history (hours):
 
Tides and Currents Weather Stations Pressure Air Temp Water Temp Dewpoint Dewpoint Depression Visibility Wind Speed Wind Dir Waves Ship Positions

Wilson Lista

Last reported at 2016-Feb-13 02:30 UTC. Time now 2016-Feb-13 02:38 UTC.
Position N 53°31' E 009°54'.

Length 88 m; draft 3.5 m.

Type: Cargo ship. MMSI: 314188000.

Date/timePositionNaut miles runAvg speedWind from/ knotsBaromVisibWave heightAir tempDewpointWater temp
2016-Feb-13 02:30N 53°31' E 009°54'0 0.0
2016-Feb-13 01:33N 53°31' E 009°54'0 0.0
2016-Feb-13 00:33N 53°31' E 009°54'0 0.0
2016-Feb-12 23:32N 53°31' E 009°54'0 0.0
2016-Feb-12 22:32N 53°31' E 009°54'0 0.0
2016-Feb-12 21:31N 53°31' E 009°54'0 0.0
2016-Feb-12 20:31N 53°31' E 009°54'0 0.0
2016-Feb-12 19:33N 53°31' E 009°54'0 0.0
2016-Feb-12 18:30N 53°31' E 009°54'0 0.0
2016-Feb-12 17:33N 53°31' E 009°54'0 0.0
2016-Feb-12 16:32N 53°31' E 009°54'0 0.0
2016-Feb-12 15:29N 53°31' E 009°54'0 0.0
2016-Feb-12 14:28N 53°31' E 009°54'0 0.0
2016-Feb-12 13:31N 53°31' E 009°54'0 0.0
2016-Feb-12 12:33N 53°31' E 009°54'0 0.0
2016-Feb-12 11:33N 53°31' E 009°54'0 0.0
2016-Feb-12 10:33N 53°31' E 009°54'0 0.0
2016-Feb-12 09:32N 53°31' E 009°54'0 0.0
2016-Feb-12 08:32N 53°31' E 009°54'0 0.0
2016-Feb-12 07:31N 53°31' E 009°54'0 0.0
2016-Feb-12 06:31N 53°31' E 009°54'1 1.4
2016-Feb-12 05:33N 53°32' E 009°53'10 9.9
2016-Feb-12 04:33N 53°35' E 009°37'1212.3
2016-Feb-12 03:34N 53°45' E 009°24'1212.0
2016-Feb-12 02:33N 53°53' E 009°08'1313.4
2016-Feb-12 01:33N 53°51' E 008°46'1312.5
2016-Feb-12 00:33N 53°58' E 008°29'1313.0
2016-Feb-11 23:33N 53°59' E 008°07'1312.8
2016-Feb-11 22:33N 53°56' E 007°46'1312.8
2016-Feb-11 21:33N 53°53' E 007°24'1212.4
2016-Feb-11 20:33N 53°51' E 007°04'1211.7
2016-Feb-11 19:33N 53°48' E 006°45'1110.8
2016-Feb-11 18:33N 53°46' E 006°27'1010.3
2016-Feb-11 17:33N 53°43' E 006°10'1010.0
2016-Feb-11 16:33N 53°39' E 005°54'1010.0
2016-Feb-11 15:33N 53°36' E 005°38'10 9.9
2016-Feb-11 14:33N 53°33' E 005°22'10 9.9
2016-Feb-11 13:33N 53°30' E 005°06'11211.0
2016-Feb-11 03:20N 52°59' E 002°06'7 9.5
2016-Feb-11 02:33N 52°59' E 001°54'9 9.2
2016-Feb-11 01:33N 53°01' E 001°39'1010.1
2016-Feb-11 00:33N 53°03' E 001°22'1110.7
2016-Feb-10 23:33N 53°05' E 001°05'1111.5
2016-Feb-10 22:33N 53°07' E 000°46'10 9.9
2016-Feb-10 21:33N 53°04' E 000°31'1212.3
2016-Feb-10 20:33N 52°55' E 000°17'9 8.6
2016-Feb-10 19:33N 52°47' E 000°12'0 0.2
2016-Feb-10 18:33N 52°47' E 000°12'0 0.0
2016-Feb-10 17:28N 52°47' E 000°12'0 0.0
2016-Feb-10 16:25N 52°47' E 000°12'0 0.0
2016-Feb-10 15:34N 52°47' E 000°12'0 0.0
2016-Feb-10 14:33N 52°47' E 000°12'0 0.0
2016-Feb-10 13:33N 52°47' E 000°12'0 0.0
2016-Feb-10 12:32N 52°47' E 000°12'0 0.0
2016-Feb-10 11:32N 52°47' E 000°12'0 0.0
2016-Feb-10 10:28N 52°47' E 000°12'0 0.0
2016-Feb-10 09:31N 52°47' E 000°12'0 0.0
2016-Feb-10 08:34N 52°47' E 000°12'0 0.0
2016-Feb-10 07:33N 52°47' E 000°12'0 0.0
2016-Feb-10 06:33N 52°47' E 000°12'0 0.0
2016-Feb-10 05:32N 52°47' E 000°12'0 0.0
2016-Feb-10 04:32N 52°47' E 000°12'0 0.0
2016-Feb-10 03:31N 52°47' E 000°12'0 0.0
2016-Feb-10 02:25N 52°47' E 000°12'0 0.0
2016-Feb-10 01:31N 52°47' E 000°12'0 0.0
2016-Feb-10 00:30N 52°47' E 000°12'0 0.0
2016-Feb-09 23:33N 52°47' E 000°12'0 0.0
2016-Feb-09 22:29N 52°47' E 000°12'0 0.0
2016-Feb-09 21:14N 52°47' E 000°12'0 0.0
2016-Feb-09 20:31N 52°47' E 000°12'0 0.0
2016-Feb-09 19:31N 52°47' E 000°12'0 0.0
2016-Feb-09 18:27N 52°47' E 000°12'0 0.0
2016-Feb-09 17:33N 52°47' E 000°12'0 0.0
2016-Feb-09 16:33N 52°47' E 000°12'0 0.0
2016-Feb-09 15:32N 52°47' E 000°12'0 0.0
2016-Feb-09 14:32N 52°47' E 000°12'0 0.0
2016-Feb-09 13:31N 52°47' E 000°12'0 0.0
2016-Feb-09 12:25N 52°47' E 000°12'0 0.0
2016-Feb-09 11:27N 52°47' E 000°12'0 0.0
2016-Feb-09 10:33N 52°47' E 000°12'0 0.0
2016-Feb-09 09:33N 52°47' E 000°12'0 0.0
2016-Feb-09 08:32N 52°47' E 000°12'0 0.2
2016-Feb-09 07:33N 52°47' E 000°12'4 3.6
2016-Feb-09 06:33N 52°50' E 000°13'4 3.8
2016-Feb-09 05:33N 52°54' E 000°16'1 0.6
2016-Feb-09 04:34N 52°53' E 000°16'2 2.4
2016-Feb-09 03:30N 52°56' E 000°16'0 0.1
2016-Feb-09 02:33N 52°56' E 000°16'0 0.0
2016-Feb-09 01:33N 52°56' E 000°16'0 0.0
2016-Feb-09 00:29N 52°56' E 000°16'0 0.0
2016-Feb-08 23:26N 52°56' E 000°16'0 0.0
2016-Feb-08 22:31N 52°56' E 000°16'0 0.0
2016-Feb-08 21:28N 52°56' E 000°16'0 0.0
2016-Feb-08 20:33N 52°56' E 000°16'0 0.0
2016-Feb-08 19:33N 52°56' E 000°16'1 0.9
2016-Feb-08 18:33N 52°56' E 000°17'6 6.3
2016-Feb-08 17:33N 53°01' E 000°24'9 8.7
2016-Feb-08 16:33N 53°08' E 000°34'16 7.7
2016-Feb-08 14:28N 53°20' E 000°51'152 4.6
2016-Feb-07 05:32N 53°34' E 005°05'6 6.2
2016-Feb-07 04:33N 53°36' E 005°15'6 6.2
2016-Feb-07 03:33N 53°38' E 005°25'8 7.7
2016-Feb-07 02:33N 53°40' E 005°37'9 8.9
2016-Feb-07 01:33N 53°43' E 005°51'9 9.4
2016-Feb-07 00:33N 53°46' E 006°06'9 9.1
2016-Feb-06 23:33N 53°49' E 006°21'10 9.5
2016-Feb-06 22:33N 53°51' E 006°37'9 8.8
2016-Feb-06 21:33N 53°53' E 006°51'8 8.2
2016-Feb-06 20:33N 53°55' E 007°05'8 7.7
2016-Feb-06 19:33N 53°57' E 007°17'8 7.6
2016-Feb-06 18:33N 53°59' E 007°30'7 6.6
2016-Feb-06 17:33N 53°58' E 007°41'8 7.6
2016-Feb-06 16:33N 53°53' E 007°51'1010.0
2016-Feb-06 15:33N 53°49' E 008°07'1212.1
2016-Feb-06 14:33N 53°41' E 008°22'1211.9
2016-Feb-06 13:33N 53°32' E 008°34'1111.3
2016-Feb-06 12:33N 53°21' E 008°30'10 9.8
2016-Feb-06 11:33N 53°11' E 008°33'7 6.9
2016-Feb-06 10:33N 53°07' E 008°43'0 0.3
2016-Feb-06 09:31N 53°07' E 008°43'0 0.0
2016-Feb-06 08:32N 53°07' E 008°43'0 0.0
2016-Feb-06 07:32N 53°07' E 008°43'0 0.0
2016-Feb-06 06:33N 53°07' E 008°43'0 0.0
2016-Feb-06 05:33N 53°07' E 008°43'0 0.0
2016-Feb-06 04:32N 53°07' E 008°43'0 0.0
2016-Feb-06 03:32N 53°07' E 008°43'0 0.0
2016-Feb-06 02:31N 53°07' E 008°43'0 0.0
2016-Feb-06 01:33N 53°07' E 008°43'0 0.0
2016-Feb-06 00:32N 53°07' E 008°43'0 0.0
2016-Feb-05 23:32N 53°07' E 008°43'0 0.0
2016-Feb-05 22:31N 53°07' E 008°43'0 0.0
2016-Feb-05 21:31N 53°07' E 008°43'0 0.0
2016-Feb-05 20:31N 53°07' E 008°43'0 0.0
2016-Feb-05 19:32N 53°07' E 008°43'0 0.0
2016-Feb-05 18:31N 53°07' E 008°43'0 0.0
2016-Feb-05 17:31N 53°07' E 008°43'0 0.0
2016-Feb-05 16:33N 53°07' E 008°43'0 0.0
2016-Feb-05 15:33N 53°07' E 008°43'0 0.0
2016-Feb-05 14:33N 53°07' E 008°43'0 0.0
2016-Feb-05 13:33N 53°07' E 008°43'0 0.0
2016-Feb-05 12:30N 53°07' E 008°43'0 0.0
2016-Feb-05 11:34N 53°07' E 008°43'0 0.0
2016-Feb-05 10:33N 53°07' E 008°43'0 0.0
2016-Feb-05 09:33N 53°07' E 008°43'0 0.0
2016-Feb-05 08:32N 53°07' E 008°43'0 0.0
2016-Feb-05 07:32N 53°07' E 008°43'0 0.0
2016-Feb-05 06:31N 53°07' E 008°43'0 0.0
2016-Feb-05 05:31N 53°07' E 008°43'0 0.0
2016-Feb-05 04:33N 53°07' E 008°43'0 0.0
2016-Feb-05 03:33N 53°07' E 008°43'0 0.0
2016-Feb-05 02:33N 53°07' E 008°43'0 0.0
2016-Feb-05 01:32N 53°07' E 008°43'0 0.2
2016-Feb-05 00:34N 53°07' E 008°43'2 2.3
2016-Feb-04 23:33N 53°08' E 008°39'8 7.9
2016-Feb-04 22:33N 53°13' E 008°30'9 9.1
2016-Feb-04 21:33N 53°22' E 008°30'9 9.4
2016-Feb-04 20:33N 53°31' E 008°33'0 0.2
2016-Feb-04 19:31N 53°31' E 008°33'0 0.0
2016-Feb-04 18:31N 53°31' E 008°33'0 0.0
2016-Feb-04 17:33N 53°31' E 008°33'0 0.0
2016-Feb-04 16:33N 53°31' E 008°33'0 0.0
2016-Feb-04 15:32N 53°31' E 008°33'0 0.0
2016-Feb-04 14:32N 53°31' E 008°33'0 0.0
2016-Feb-04 13:32N 53°31' E 008°33'0 0.0
2016-Feb-04 12:31N 53°31' E 008°33'0 0.0
2016-Feb-04 11:31N 53°31' E 008°33'0 0.0
2016-Feb-04 10:33N 53°31' E 008°33'0 0.0
2016-Feb-04 09:33N 53°31' E 008°33'0 0.0
2016-Feb-04 08:32N 53°31' E 008°33'0 0.0
2016-Feb-04 07:32N 53°31' E 008°33'0 0.0
2016-Feb-04 06:32N 53°31' E 008°33'0 0.0
2016-Feb-04 05:33N 53°31' E 008°33'8 7.7
2016-Feb-04 04:33N 53°38' E 008°26'1211.8
2016-Feb-04 03:34N 53°46' E 008°11'1110.9
2016-Feb-04 02:33N 53°51' E 007°56'10 9.9
2016-Feb-04 01:33N 53°56' E 007°40'9 9.4
2016-Feb-04 00:33N 54°04' E 007°32'9 9.1
2016-Feb-03 23:33N 54°12' E 007°25'9 8.7
2016-Feb-03 22:33N 54°20' E 007°22'8 7.8
2016-Feb-03 21:33N 54°28' E 007°19'8 7.9
2016-Feb-03 20:33N 54°35' E 007°16'9 7.6
2016-Feb-03 19:23N 54°44' E 007°12'6 7.5
2016-Feb-03 18:33N 54°50' E 007°10'8 8.0
2016-Feb-03 17:33N 54°58' E 007°08'6 6.2
2016-Feb-03 16:33N 55°04' E 007°05'6 6.0
2016-Feb-03 15:33N 55°10' E 007°04'6 5.8
2016-Feb-03 14:33N 55°16' E 007°02'6 5.8
2016-Feb-03 13:33N 55°22' E 007°01'  
Track history (hours):
 
Tides and Currents Weather Stations Pressure Air Temp Water Temp Dewpoint Dewpoint Depression Visibility Wind Speed Wind Dir Waves Ship Positions

Wilson Lista

Last reported at 2016-Feb-13 02:30 UTC. Time now 2016-Feb-13 02:38 UTC.
Position N 53°31' E 009°54'.

Length 88 m; draft 3.5 m.

Type: Cargo ship. MMSI: 314188000.

Date/timePositionNaut miles runAvg speedWind from/ knotsBaromVisibWave heightAir tempDewpointWater temp
2016-Feb-13 02:30N 53°31' E 009°54'0 0.0
2016-Feb-13 01:33N 53°31' E 009°54'0 0.0
2016-Feb-13 00:33N 53°31' E 009°54'0 0.0
2016-Feb-12 23:32N 53°31' E 009°54'0 0.0
2016-Feb-12 22:32N 53°31' E 009°54'0 0.0
2016-Feb-12 21:31N 53°31' E 009°54'0 0.0
2016-Feb-12 20:31N 53°31' E 009°54'0 0.0
2016-Feb-12 19:33N 53°31' E 009°54'0 0.0
2016-Feb-12 18:30N 53°31' E 009°54'0 0.0
2016-Feb-12 17:33N 53°31' E 009°54'0 0.0
2016-Feb-12 16:32N 53°31' E 009°54'0 0.0
2016-Feb-12 15:29N 53°31' E 009°54'0 0.0
2016-Feb-12 14:28N 53°31' E 009°54'0 0.0
2016-Feb-12 13:31N 53°31' E 009°54'0 0.0
2016-Feb-12 12:33N 53°31' E 009°54'0 0.0
2016-Feb-12 11:33N 53°31' E 009°54'0 0.0
2016-Feb-12 10:33N 53°31' E 009°54'0 0.0
2016-Feb-12 09:32N 53°31' E 009°54'0 0.0
2016-Feb-12 08:32N 53°31' E 009°54'0 0.0
2016-Feb-12 07:31N 53°31' E 009°54'0 0.0
2016-Feb-12 06:31N 53°31' E 009°54'1 1.4
2016-Feb-12 05:33N 53°32' E 009°53'10 9.9
2016-Feb-12 04:33N 53°35' E 009°37'1212.3
2016-Feb-12 03:34N 53°45' E 009°24'1212.0
2016-Feb-12 02:33N 53°53' E 009°08'1313.4
2016-Feb-12 01:33N 53°51' E 008°46'1312.5
2016-Feb-12 00:33N 53°58' E 008°29'1313.0
2016-Feb-11 23:33N 53°59' E 008°07'1312.8
2016-Feb-11 22:33N 53°56' E 007°46'1312.8
2016-Feb-11 21:33N 53°53' E 007°24'1212.4
2016-Feb-11 20:33N 53°51' E 007°04'1211.7
2016-Feb-11 19:33N 53°48' E 006°45'1110.8
2016-Feb-11 18:33N 53°46' E 006°27'1010.3
2016-Feb-11 17:33N 53°43' E 006°10'1010.0
2016-Feb-11 16:33N 53°39' E 005°54'1010.0
2016-Feb-11 15:33N 53°36' E 005°38'10 9.9
2016-Feb-11 14:33N 53°33' E 005°22'10 9.9
2016-Feb-11 13:33N 53°30' E 005°06'11211.0
2016-Feb-11 03:20N 52°59' E 002°06'7 9.5
2016-Feb-11 02:33N 52°59' E 001°54'9 9.2
2016-Feb-11 01:33N 53°01' E 001°39'1010.1
2016-Feb-11 00:33N 53°03' E 001°22'1110.7
2016-Feb-10 23:33N 53°05' E 001°05'1111.5
2016-Feb-10 22:33N 53°07' E 000°46'10 9.9
2016-Feb-10 21:33N 53°04' E 000°31'1212.3
2016-Feb-10 20:33N 52°55' E 000°17'9 8.6
2016-Feb-10 19:33N 52°47' E 000°12'0 0.2
2016-Feb-10 18:33N 52°47' E 000°12'0 0.0
2016-Feb-10 17:28N 52°47' E 000°12'0 0.0
2016-Feb-10 16:25N 52°47' E 000°12'0 0.0
2016-Feb-10 15:34N 52°47' E 000°12'0 0.0
2016-Feb-10 14:33N 52°47' E 000°12'0 0.0
2016-Feb-10 13:33N 52°47' E 000°12'0 0.0
2016-Feb-10 12:32N 52°47' E 000°12'0 0.0
2016-Feb-10 11:32N 52°47' E 000°12'0 0.0
2016-Feb-10 10:28N 52°47' E 000°12'0 0.0
2016-Feb-10 09:31N 52°47' E 000°12'0 0.0
2016-Feb-10 08:34N 52°47' E 000°12'0 0.0
2016-Feb-10 07:33N 52°47' E 000°12'0 0.0
2016-Feb-10 06:33N 52°47' E 000°12'0 0.0
2016-Feb-10 05:32N 52°47' E 000°12'0 0.0
2016-Feb-10 04:32N 52°47' E 000°12'0 0.0
2016-Feb-10 03:31N 52°47' E 000°12'0 0.0
2016-Feb-10 02:25N 52°47' E 000°12'0 0.0
2016-Feb-10 01:31N 52°47' E 000°12'0 0.0
2016-Feb-10 00:30N 52°47' E 000°12'0 0.0
2016-Feb-09 23:33N 52°47' E 000°12'0 0.0
2016-Feb-09 22:29N 52°47' E 000°12'0 0.0
2016-Feb-09 21:14N 52°47' E 000°12'0 0.0
2016-Feb-09 20:31N 52°47' E 000°12'0 0.0
2016-Feb-09 19:31N 52°47' E 000°12'0 0.0
2016-Feb-09 18:27N 52°47' E 000°12'0 0.0
2016-Feb-09 17:33N 52°47' E 000°12'0 0.0
2016-Feb-09 16:33N 52°47' E 000°12'0 0.0
2016-Feb-09 15:32N 52°47' E 000°12'0 0.0
2016-Feb-09 14:32N 52°47' E 000°12'0 0.0
2016-Feb-09 13:31N 52°47' E 000°12'0 0.0
2016-Feb-09 12:25N 52°47' E 000°12'0 0.0
2016-Feb-09 11:27N 52°47' E 000°12'0 0.0
2016-Feb-09 10:33N 52°47' E 000°12'0 0.0
2016-Feb-09 09:33N 52°47' E 000°12'0 0.0
2016-Feb-09 08:32N 52°47' E 000°12'0 0.2
2016-Feb-09 07:33N 52°47' E 000°12'4 3.6
2016-Feb-09 06:33N 52°50' E 000°13'4 3.8
2016-Feb-09 05:33N 52°54' E 000°16'1 0.6
2016-Feb-09 04:34N 52°53' E 000°16'2 2.4
2016-Feb-09 03:30N 52°56' E 000°16'0 0.1
2016-Feb-09 02:33N 52°56' E 000°16'0 0.0
2016-Feb-09 01:33N 52°56' E 000°16'0 0.0
2016-Feb-09 00:29N 52°56' E 000°16'0 0.0
2016-Feb-08 23:26N 52°56' E 000°16'0 0.0
2016-Feb-08 22:31N 52°56' E 000°16'0 0.0
2016-Feb-08 21:28N 52°56' E 000°16'0 0.0
2016-Feb-08 20:33N 52°56' E 000°16'0 0.0
2016-Feb-08 19:33N 52°56' E 000°16'1 0.9
2016-Feb-08 18:33N 52°56' E 000°17'6 6.3
2016-Feb-08 17:33N 53°01' E 000°24'9 8.7
2016-Feb-08 16:33N 53°08' E 000°34'16 7.7
2016-Feb-08 14:28N 53°20' E 000°51'152 4.6
2016-Feb-07 05:32N 53°34' E 005°05'6 6.2
2016-Feb-07 04:33N 53°36' E 005°15'6 6.2
2016-Feb-07 03:33N 53°38' E 005°25'8 7.7
2016-Feb-07 02:33N 53°40' E 005°37'9 8.9
2016-Feb-07 01:33N 53°43' E 005°51'9 9.4
2016-Feb-07 00:33N 53°46' E 006°06'9 9.1
2016-Feb-06 23:33N 53°49' E 006°21'10 9.5
2016-Feb-06 22:33N 53°51' E 006°37'9 8.8
2016-Feb-06 21:33N 53°53' E 006°51'8 8.2
2016-Feb-06 20:33N 53°55' E 007°05'8 7.7
2016-Feb-06 19:33N 53°57' E 007°17'8 7.6
2016-Feb-06 18:33N 53°59' E 007°30'7 6.6
2016-Feb-06 17:33N 53°58' E 007°41'8 7.6
2016-Feb-06 16:33N 53°53' E 007°51'1010.0
2016-Feb-06 15:33N 53°49' E 008°07'1212.1
2016-Feb-06 14:33N 53°41' E 008°22'1211.9
2016-Feb-06 13:33N 53°32' E 008°34'1111.3
2016-Feb-06 12:33N 53°21' E 008°30'10 9.8
2016-Feb-06 11:33N 53°11' E 008°33'7 6.9
2016-Feb-06 10:33N 53°07' E 008°43'0 0.3
2016-Feb-06 09:31N 53°07' E 008°43'0 0.0
2016-Feb-06 08:32N 53°07' E 008°43'0 0.0
2016-Feb-06 07:32N 53°07' E 008°43'0 0.0
2016-Feb-06 06:33N 53°07' E 008°43'0 0.0
2016-Feb-06 05:33N 53°07' E 008°43'0 0.0
2016-Feb-06 04:32N 53°07' E 008°43'0 0.0
2016-Feb-06 03:32N 53°07' E 008°43'0 0.0
2016-Feb-06 02:31N 53°07' E 008°43'0 0.0
2016-Feb-06 01:33N 53°07' E 008°43'0 0.0
2016-Feb-06 00:32N 53°07' E 008°43'0 0.0
2016-Feb-05 23:32N 53°07' E 008°43'0 0.0
2016-Feb-05 22:31N 53°07' E 008°43'0 0.0
2016-Feb-05 21:31N 53°07' E 008°43'0 0.0
2016-Feb-05 20:31N 53°07' E 008°43'0 0.0
2016-Feb-05 19:32N 53°07' E 008°43'0 0.0
2016-Feb-05 18:31N 53°07' E 008°43'0 0.0
2016-Feb-05 17:31N 53°07' E 008°43'0 0.0
2016-Feb-05 16:33N 53°07' E 008°43'0 0.0
2016-Feb-05 15:33N 53°07' E 008°43'0 0.0
2016-Feb-05 14:33N 53°07' E 008°43'0 0.0
2016-Feb-05 13:33N 53°07' E 008°43'0 0.0
2016-Feb-05 12:30N 53°07' E 008°43'0 0.0
2016-Feb-05 11:34N 53°07' E 008°43'0 0.0
2016-Feb-05 10:33N 53°07' E 008°43'0 0.0
2016-Feb-05 09:33N 53°07' E 008°43'0 0.0
2016-Feb-05 08:32N 53°07' E 008°43'0 0.0
2016-Feb-05 07:32N 53°07' E 008°43'0 0.0
2016-Feb-05 06:31N 53°07' E 008°43'0 0.0
2016-Feb-05 05:31N 53°07' E 008°43'0 0.0
2016-Feb-05 04:33N 53°07' E 008°43'0 0.0
2016-Feb-05 03:33N 53°07' E 008°43'0 0.0
2016-Feb-05 02:33N 53°07' E 008°43'0 0.0
2016-Feb-05 01:32N 53°07' E 008°43'0 0.2
2016-Feb-05 00:34N 53°07' E 008°43'2 2.3
2016-Feb-04 23:33N 53°08' E 008°39'8 7.9
2016-Feb-04 22:33N 53°13' E 008°30'9 9.1
2016-Feb-04 21:33N 53°22' E 008°30'9 9.4
2016-Feb-04 20:33N 53°31' E 008°33'0 0.2
2016-Feb-04 19:31N 53°31' E 008°33'0 0.0
2016-Feb-04 18:31N 53°31' E 008°33'0 0.0
2016-Feb-04 17:33N 53°31' E 008°33'0 0.0
2016-Feb-04 16:33N 53°31' E 008°33'0 0.0
2016-Feb-04 15:32N 53°31' E 008°33'0 0.0
2016-Feb-04 14:32N 53°31' E 008°33'0 0.0
2016-Feb-04 13:32N 53°31' E 008°33'0 0.0
2016-Feb-04 12:31N 53°31' E 008°33'0 0.0
2016-Feb-04 11:31N 53°31' E 008°33'0 0.0
2016-Feb-04 10:33N 53°31' E 008°33'0 0.0
2016-Feb-04 09:33N 53°31' E 008°33'0 0.0
2016-Feb-04 08:32N 53°31' E 008°33'0 0.0
2016-Feb-04 07:32N 53°31' E 008°33'0 0.0
2016-Feb-04 06:32N 53°31' E 008°33'0 0.0
2016-Feb-04 05:33N 53°31' E 008°33'8 7.7
2016-Feb-04 04:33N 53°38' E 008°26'1211.8
2016-Feb-04 03:34N 53°46' E 008°11'1110.9
2016-Feb-04 02:33N 53°51' E 007°56'10 9.9
2016-Feb-04 01:33N 53°56' E 007°40'9 9.4
2016-Feb-04 00:33N 54°04' E 007°32'9 9.1
2016-Feb-03 23:33N 54°12' E 007°25'9 8.7
2016-Feb-03 22:33N 54°20' E 007°22'8 7.8
2016-Feb-03 21:33N 54°28' E 007°19'8 7.9
2016-Feb-03 20:33N 54°35' E 007°16'9 7.6
2016-Feb-03 19:23N 54°44' E 007°12'6 7.5
2016-Feb-03 18:33N 54°50' E 007°10'8 8.0
2016-Feb-03 17:33N 54°58' E 007°08'6 6.2
2016-Feb-03 16:33N 55°04' E 007°05'6 6.0
2016-Feb-03 15:33N 55°10' E 007°04'6 5.8
2016-Feb-03 14:33N 55°16' E 007°02'6 5.8
2016-Feb-03 13:33N 55°22' E 007°01'  

Dump ship's entire track history